Storm Lake, IA

11:54 PM CDT en Septiembre 15, 2014 (GMT -0500)
Storm Lake Municipal | Change Station
CLOSE
Current Station
Aeropuerto
Location: Storm Lake,
Altura: 1490 ft
Estaciones meteorológicas cercanas

Alt 1490 ft 42.60 °N, 95.24 °W | Updated 19 minutes ago

Despejado
Despejado
45 ° F
Sensación térmica 45 ° F
N
0
Viento Variable Viento desde Norte

Hoy
Alta -- | Baja -- ° F
--% Posibilidad de precipitaciones
Ayer
Alta -- | Baja -- ° F
Precip. -- pul
7:00 AM 7:30 PM
Gibosa menguante, 49% visible
Presión 30.26 pul
Visibilidad 10.0 Millas
Nubes Despejado
Punto de rocío 41 ° F
Humedad 87%
Precipitaciones 0.00 pul
Espesor de la nieve No disponible.
UV 0 de una escala de 12
Polen 5.10 de una escala de 12
Calidad del aire No disponible.
Flu Activity No disponible.
METAR KSLB 160435Z AUTO 00000KT 10SM CLR 07/05 A3026 RMK AO2

More Conditions Fewer Conditions

Presión 30.26 pul
Visibilidad 10.0 Millas
Nubes Despejado
Punto de rocío 41 ° F
Humedad 87%
Precipitaciones 0.00 pul
Espesor de la nieve No disponible.
UV 0 de una escala de 12
Polen 5.10 de una escala de 12
Calidad del aire No disponible.
Flu Activity No disponible.
METAR KSLB 160435Z AUTO 00000KT 10SM CLR 07/05 A3026 RMK AO2

More Conditions Fewer Conditions

10-Day Weather Forecast

Almanac

Astronomía

Sep. 15, 2014 Salida Puesta
Hora real 7:00 AM CDT 7:30 PM CDT
Crepúsculo civil 6:32 AM CDT 7:58 PM CDT
Crepúsculo náutico 5:58 AM CDT 8:32 PM CDT
Crepúsculo astronómico 5:24 AM CDT 9:06 PM CDT
Luna Sin salida de luna 2:09 PM CDT (9/15)
Horas de luz 13h 26m
Horas de luz
12h 29m
Tomorrow will be 2m 51s shorter.
Gibosa menguante, 49% of the Moon is Illuminated
Sep 16
Gibosa menguante
Sep 24
Nueva
Oct 1
Cuarto creciente
Oct 8
Luna llena
Oct 15
Cuarto menguante

Extremos de ayer

Máximos del estado Bajos del estado

Community

WunderPhotos

Upload Photos

1,753,702 ¡fotos cargadas!

Nearby

Grosos de nieve

Estación Profundido Altura
No tenemos constancia de nieve nueva.

Actividad de terremotos

Ciudad Distance Mag. Tiempo y dato
No hay informes recientes de la actividad sísmica.
Magnitud mínima muestra es 2,5.

Temperaturas de aguas costeras

Lugar Temperatura
Sin partes meteorológicos de las estaciones

Estaciones meteorológicas cercanas